Time;durP1;ratioP1;P1;durP2;ratioP2;P2;SDS_P1;SDS_P2;PMS_P1;PMS_P2;Temp;Humidity;BMP_temperature;BMP_pressure;BME280_temperature;BME280_humidity;BME280_pressure;Samples;Min_cycle;Max_cycle;Signal;HPM_P1;HPM_P2
2021/11/05 00:10:57;;;;;;;6.97;4.25;;;;;;;;;;6293083;22;20521;31
2021/11/05 00:24:16;;;;;;;8.65;5.80;;;;;;;;;;6229889;22;20532;31
2021/11/05 00:37:56;;;;;;;11.82;6.30;;;;;;;;;;6292032;22;21428;-59
2021/11/05 00:47:45;;;;;;;13.88;8.80;;;;;;;;;;6331880;22;20203;31
2021/11/05 01:12:41;;;;;;;17.63;9.70;;;;;;;;;;6322829;22;20510;31
2021/11/05 01:21:45;;;;;;;16.15;8.73;;;;;;;;;;6346683;22;20441;31
2021/11/05 01:32:38;;;;;;;12.68;6.88;;;;;;;;;;6325054;22;20517;31
2021/11/05 01:54:04;;;;;;;8.48;5.07;;;;;;;;;;6291602;22;20519;31
2021/11/05 02:14:20;;;;;;;8.43;4.90;;;;;;;;;;6323511;22;20520;31
2021/11/05 02:28:42;;;;;;;6.70;4.45;;;;;;;;;;6292351;22;22896;31
2021/11/05 02:38:37;;;;;;;;;;;;;;;;;;;;;
2021/11/05 02:42:34;;;;;;;6.78;3.67;;;;;;;;;;6169330;22;20530;31
2021/11/05 02:49:24;;;;;;;6.65;3.88;;;;;;;;;;6261333;22;21434;-59
2021/11/05 02:51:50;;;;;;;6.80;3.75;;;;;;;;;;6227030;22;20191;31
2021/11/05 03:12:31;;;;;;;7.75;4.07;;;;;;;;;;6345270;22;20196;31
2021/11/05 03:19:17;;;;;;;6.40;3.78;;;;;;;;;;6229094;22;20194;31
2021/11/05 03:23:57;;;;;;;8.38;4.07;;;;;;;;;;6350168;22;20547;-57
2021/11/05 03:26:23;;;;;;;5.15;3.60;;;;;;;;;;6347456;22;20576;-58
2021/11/05 03:28:49;;;;;;;6.97;4.03;;;;;;;;;;6348284;22;20118;-58
2021/11/05 03:31:15;;;;;;;7.85;3.45;;;;;;;;;;6347570;22;20441;-58
2021/11/05 03:33:42;;;;;;;9.02;3.70;;;;;;;;;;6347501;22;20493;-58
2021/11/05 03:36:08;;;;;;;5.50;2.90;;;;;;;;;;6347783;22;20202;-57
2021/11/05 03:38:34;;;;;;;6.88;3.40;;;;;;;;;;6347536;22;20493;-58
2021/11/05 03:41:00;;;;;;;5.90;3.75;;;;;;;;;;6347432;22;20224;-58
2021/11/05 03:43:26;;;;;;;3.97;2.97;;;;;;;;;;6347609;22;20170;-57
2021/11/05 03:45:52;;;;;;;5.93;3.28;;;;;;;;;;6347789;22;20198;-58
2021/11/05 03:48:18;;;;;;;6.82;3.20;;;;;;;;;;6347404;22;20138;-57
2021/11/05 03:50:44;;;;;;;7.47;3.38;;;;;;;;;;6347648;22;20560;-58
2021/11/05 03:53:10;;;;;;;5.15;2.90;;;;;;;;;;6347323;22;20142;-58
2021/11/05 03:55:36;;;;;;;7.60;3.17;;;;;;;;;;6347246;22;20156;-59
2021/11/05 03:58:02;;;;;;;7.40;3.05;;;;;;;;;;6347278;22;20170;-59
2021/11/05 04:00:28;;;;;;;4.82;2.90;;;;;;;;;;6347205;22;20498;-59
2021/11/05 04:02:54;;;;;;;6.15;3.03;;;;;;;;;;6347198;22;20157;-57
2021/11/05 04:05:20;;;;;;;6.63;2.92;;;;;;;;;;6347390;22;20134;-58
2021/11/05 04:07:46;;;;;;;5.78;2.60;;;;;;;;;;6347537;22;20138;-58
2021/11/05 04:10:12;;;;;;;2.97;2.42;;;;;;;;;;6347183;22;20166;-58
2021/11/05 04:12:38;;;;;;;4.18;2.63;;;;;;;;;;6347911;22;20142;-58
2021/11/05 04:15:05;;;;;;;4.65;2.85;;;;;;;;;;6347131;22;20138;-58
2021/11/05 04:17:30;;;;;;;3.17;2.40;;;;;;;;;;6347610;22;20173;-57
2021/11/05 04:19:56;;;;;;;5.00;2.65;;;;;;;;;;6346985;22;20203;-58
2021/11/05 04:22:22;;;;;;;4.57;2.50;;;;;;;;;;6347150;22;20179;-58
2021/11/05 04:24:48;;;;;;;5.18;2.60;;;;;;;;;;6347037;22;20134;-57
2021/11/05 04:27:14;;;;;;;7.55;2.30;;;;;;;;;;6347104;22;20134;-58
2021/11/05 04:29:40;;;;;;;5.53;2.40;;;;;;;;;;6347397;22;20150;-57
2021/11/05 04:32:06;;;;;;;5.25;2.38;;;;;;;;;;6347089;22;20302;-57
2021/11/05 04:34:32;;;;;;;5.45;2.22;;;;;;;;;;6342202;22;20144;-59
2021/11/05 04:36:58;;;;;;;4.57;1.90;;;;;;;;;;6339857;22;20142;-58
2021/11/05 04:39:25;;;;;;;4.15;2.40;;;;;;;;;;6340362;22;20142;-59
2021/11/05 04:41:52;;;;;;;5.20;2.10;;;;;;;;;;6340349;22;20166;-58
2021/11/05 04:44:18;;;;;;;5.28;1.92;;;;;;;;;;6340932;22;20333;-59
2021/11/05 04:46:44;;;;;;;4.88;1.80;;;;;;;;;;6340485;22;20138;-59
2021/11/05 04:49:10;;;;;;;3.92;2.03;;;;;;;;;;6340268;22;20569;-59
2021/11/05 04:51:36;;;;;;;3.80;2.15;;;;;;;;;;6340452;22;20244;-59
2021/11/05 04:54:02;;;;;;;5.60;2.15;;;;;;;;;;6340495;22;20146;-59
2021/11/05 04:56:28;;;;;;;2.70;2.17;;;;;;;;;;6340516;22;20134;-57
2021/11/05 04:58:54;;;;;;;5.82;2.10;;;;;;;;;;6339873;22;20146;-58
2021/11/05 05:01:20;;;;;;;4.82;2.45;;;;;;;;;;6339676;22;20419;-58
2021/11/05 05:03:46;;;;;;;3.83;2.08;;;;;;;;;;6340051;22;20178;-58
2021/11/05 05:06:12;;;;;;;6.95;2.10;;;;;;;;;;6339946;22;20191;-58
2021/11/05 05:08:39;;;;;;;6.63;2.30;;;;;;;;;;6339179;22;20574;-57
2021/11/05 05:11:05;;;;;;;4.13;2.05;;;;;;;;;;6339688;22;20138;-58
2021/11/05 05:13:31;;;;;;;3.70;1.92;;;;;;;;;;6339647;22;20150;-58
2021/11/05 05:15:58;;;;;;;3.35;2.05;;;;;;;;;;6339138;22;20166;-58
2021/11/05 05:18:24;;;;;;;3.08;1.98;;;;;;;;;;6339398;22;20221;-57
2021/11/05 05:20:50;;;;;;;11.98;2.70;;;;;;;;;;6337689;22;20234;-57
2021/11/05 05:23:16;;;;;;;3.17;2.00;;;;;;;;;;6338942;22;20181;-58
2021/11/05 05:25:42;;;;;;;2.85;1.90;;;;;;;;;;6339737;22;20237;-58
2021/11/05 05:28:08;;;;;;;5.07;2.00;;;;;;;;;;6339375;22;20166;-57
2021/11/05 05:30:35;;;;;;;3.00;2.10;;;;;;;;;;6339412;22;20138;-58
2021/11/05 05:33:01;;;;;;;5.03;2.15;;;;;;;;;;6339139;22;20142;-58
2021/11/05 05:35:27;;;;;;;5.30;2.40;;;;;;;;;;6339025;22;20553;-57
2021/11/05 05:37:53;;;;;;;5.57;2.15;;;;;;;;;;6339257;22;20174;-58
2021/11/05 05:40:20;;;;;;;4.15;1.90;;;;;;;;;;6339387;22;20162;-57
2021/11/05 05:42:46;;;;;;;3.63;1.73;;;;;;;;;;6339137;22;20155;-58
2021/11/05 05:45:12;;;;;;;2.63;1.58;;;;;;;;;;6338918;22;20213;-58
2021/11/05 05:47:40;;;;;;;6.00;2.00;;;;;;;;;;6339310;22;20135;-58
2021/11/05 05:50:06;;;;;;;2.33;1.90;;;;;;;;;;6339108;22;20615;-57
2021/11/05 05:52:32;;;;;;;4.90;1.90;;;;;;;;;;6339047;22;20143;-61
2021/11/05 05:54:58;;;;;;;4.10;2.08;;;;;;;;;;6339691;22;20548;-58
2021/11/05 05:57:24;;;;;;;3.58;2.20;;;;;;;;;;6339074;22;20568;-59
2021/11/05 05:59:50;;;;;;;1.85;1.60;;;;;;;;;;6339105;22;20566;-59
2021/11/05 06:02:16;;;;;;;2.88;1.60;;;;;;;;;;6338826;22;20274;-59
2021/11/05 06:04:42;;;;;;;5.05;2.30;;;;;;;;;;6339205;22;20134;-59
2021/11/05 06:07:08;;;;;;;3.03;1.92;;;;;;;;;;6338923;22;20145;-59
2021/11/05 06:09:34;;;;;;;3.97;1.95;;;;;;;;;;6339272;22;20552;-59
2021/11/05 06:12:00;;;;;;;5.82;1.73;;;;;;;;;;6338760;22;20146;-59
2021/11/05 06:14:26;;;;;;;4.43;1.95;;;;;;;;;;6339051;22;20229;-59
2021/11/05 06:16:52;;;;;;;6.63;2.15;;;;;;;;;;6338899;22;20246;-59
2021/11/05 06:19:17;;;;;;;4.13;2.22;;;;;;;;;;6339061;22;20138;-59
2021/11/05 06:21:43;;;;;;;1.80;1.60;;;;;;;;;;6338980;22;20142;-59
2021/11/05 06:24:10;;;;;;;2.60;1.85;;;;;;;;;;6338870;22;20587;-59
2021/11/05 06:26:36;;;;;;;3.13;2.00;;;;;;;;;;6339108;22;20514;-57
2021/11/05 06:29:03;;;;;;;3.13;1.80;;;;;;;;;;6339259;22;20161;-59
2021/11/05 06:31:30;;;;;;;5.97;1.60;;;;;;;;;;6339259;22;20546;-58
2021/11/05 06:33:56;;;;;;;3.53;1.65;;;;;;;;;;6339044;22;20152;-59
2021/11/05 06:36:22;;;;;;;2.33;1.63;;;;;;;;;;6338986;22;20142;-59
2021/11/05 06:38:49;;;;;;;2.03;1.63;;;;;;;;;;6339034;22;20199;-59
2021/11/05 06:41:15;;;;;;;4.13;1.77;;;;;;;;;;6339149;22;20507;-59
2021/11/05 06:43:41;;;;;;;4.75;1.65;;;;;;;;;;6339497;22;20162;-59
2021/11/05 06:46:07;;;;;;;2.45;1.50;;;;;;;;;;6339121;22;20200;-59
2021/11/05 06:48:34;;;;;;;2.80;1.75;;;;;;;;;;6339316;22;20142;-59
2021/11/05 06:51:00;;;;;;;2.75;1.48;;;;;;;;;;6339872;22;20142;-59
2021/11/05 06:53:27;;;;;;;2.50;1.60;;;;;;;;;;6339627;22;20157;-58
2021/11/05 06:55:53;;;;;;;2.78;1.48;;;;;;;;;;6339201;22;20142;-58
2021/11/05 06:58:19;;;;;;;2.97;1.60;;;;;;;;;;6339268;22;20443;-58
2021/11/05 07:00:45;;;;;;;3.83;1.92;;;;;;;;;;6339060;22;20568;-59
2021/11/05 07:03:11;;;;;;;4.88;1.90;;;;;;;;;;6339340;22;20166;-58
2021/11/05 07:05:37;;;;;;;3.80;2.17;;;;;;;;;;6339754;22;20174;-57
2021/11/05 07:08:03;;;;;;;2.78;1.85;;;;;;;;;;6339424;22;20142;-57
2021/11/05 07:10:28;;;;;;;6.82;1.80;;;;;;;;;;6339483;22;20134;-58
2021/11/05 07:12:54;;;;;;;4.65;2.13;;;;;;;;;;6338690;22;20138;-59
2021/11/05 07:15:21;;;;;;;1.80;1.50;;;;;;;;;;6339087;22;20146;-59
2021/11/05 07:17:47;;;;;;;2.13;1.60;;;;;;;;;;6338992;22;20229;-58
2021/11/05 07:20:14;;;;;;;3.53;1.70;;;;;;;;;;6338710;22;20149;-59
2021/11/05 07:22:41;;;;;;;3.63;1.75;;;;;;;;;;6338530;22;20188;-56
2021/11/05 07:25:07;;;;;;;3.05;1.52;;;;;;;;;;6338949;22;20149;-58
2021/11/05 07:27:33;;;;;;;3.00;1.55;;;;;;;;;;6338644;22;20138;-58
2021/11/05 07:29:59;;;;;;;5.10;1.80;;;;;;;;;;6338836;22;20209;-57
2021/11/05 07:32:26;;;;;;;4.40;1.70;;;;;;;;;;6338425;22;20232;-58
2021/11/05 07:34:54;;;;;;;2.63;1.52;;;;;;;;;;6338835;22;20137;-57
2021/11/05 07:37:20;;;;;;;5.38;1.70;;;;;;;;;;6338678;22;20146;-57
2021/11/05 07:39:47;;;;;;;4.72;1.55;;;;;;;;;;6338326;22;20149;-58
2021/11/05 07:42:13;;;;;;;1.67;1.40;;;;;;;;;;6338725;22;20256;-57
2021/11/05 07:44:39;;;;;;;3.17;1.48;;;;;;;;;;6338386;22;20572;-56
2021/11/05 07:47:06;;;;;;;2.05;1.20;;;;;;;;;;6338302;22;20134;-58
2021/11/05 07:49:32;;;;;;;3.13;1.48;;;;;;;;;;6338359;22;20195;-58
2021/11/05 07:51:58;;;;;;;2.28;1.30;;;;;;;;;;6338630;22;20333;-58
2021/11/05 07:54:24;;;;;;;2.08;1.15;;;;;;;;;;6338900;22;20142;-58
2021/11/05 07:56:51;;;;;;;2.72;1.30;;;;;;;;;;6338433;22;20146;-58
2021/11/05 07:59:17;;;;;;;1.45;1.17;;;;;;;;;;6338280;22;20157;-56
2021/11/05 08:01:44;;;;;;;2.78;1.23;;;;;;;;;;6338441;22;20142;-56
2021/11/05 08:04:09;;;;;;;3.25;1.10;;;;;;;;;;6328494;22;20205;-59
2021/11/05 08:06:35;;;;;;;3.42;1.05;;;;;;;;;;6303346;22;20194;-58
2021/11/05 08:09:02;;;;;;;2.72;0.93;;;;;;;;;;6314700;22;20251;-57
2021/11/05 08:11:29;;;;;;;4.97;0.90;;;;;;;;;;6311935;22;20241;-58
2021/11/05 08:13:56;;;;;;;1.33;1.10;;;;;;;;;;6340217;22;20123;-58
2021/11/05 08:16:22;;;;;;;2.80;0.90;;;;;;;;;;6340155;22;20425;-57
2021/11/05 08:18:48;;;;;;;2.40;1.08;;;;;;;;;;6340327;22;20138;-58
2021/11/05 08:21:14;;;;;;;2.60;0.85;;;;;;;;;;6340272;22;20145;-58
2021/11/05 08:23:40;;;;;;;1.63;0.85;;;;;;;;;;6339785;22;20162;-59
2021/11/05 08:26:06;;;;;;;1.15;0.65;;;;;;;;;;6340366;22;20138;-56
2021/11/05 08:28:33;;;;;;;1.38;0.65;;;;;;;;;;6339740;22;20146;-58
2021/11/05 08:30:59;;;;;;;0.57;0.50;;;;;;;;;;6340375;22;20443;-58
2021/11/05 08:33:25;;;;;;;2.88;0.80;;;;;;;;;;6339859;22;20194;-58
2021/11/05 08:35:52;;;;;;;2.90;0.70;;;;;;;;;;6339932;22;20216;-58
2021/11/05 08:38:19;;;;;;;2.50;0.52;;;;;;;;;;6340268;22;20154;-58
2021/11/05 08:40:46;;;;;;;1.00;0.60;;;;;;;;;;6339941;22;20142;-59
2021/11/05 08:43:12;;;;;;;0.50;0.50;;;;;;;;;;6340114;22;20223;-59
2021/11/05 08:45:38;;;;;;;1.63;0.60;;;;;;;;;;6340294;22;20134;-58
2021/11/05 08:48:05;;;;;;;2.50;0.68;;;;;;;;;;6339988;22;20199;-59
2021/11/05 08:50:31;;;;;;;3.83;0.70;;;;;;;;;;6340387;22;20209;-58
2021/11/05 08:52:57;;;;;;;0.95;0.55;;;;;;;;;;6340537;22;20185;-58
2021/11/05 08:55:23;;;;;;;2.30;0.80;;;;;;;;;;6339957;22;20658;-58
2021/11/05 08:57:49;;;;;;;3.40;1.00;;;;;;;;;;6340292;22;20150;-58
2021/11/05 09:00:17;;;;;;;4.00;1.30;;;;;;;;;;6340030;22;20629;-58
2021/11/05 09:02:44;;;;;;;3.67;1.25;;;;;;;;;;6340025;22;20162;-59
2021/11/05 09:05:10;;;;;;;2.67;1.55;;;;;;;;;;6339935;22;20134;-59
2021/11/05 09:07:36;;;;;;;3.28;1.23;;;;;;;;;;6340771;22;20241;-59
2021/11/05 09:10:02;;;;;;;2.17;1.67;;;;;;;;;;6339663;22;20150;-59
2021/11/05 09:12:29;;;;;;;2.95;1.50;;;;;;;;;;6339791;22;20249;-59
2021/11/05 09:14:55;;;;;;;5.63;1.48;;;;;;;;;;6339519;22;20138;-59
2021/11/05 09:17:21;;;;;;;4.03;1.55;;;;;;;;;;6340008;22;20157;-59
2021/11/05 09:19:47;;;;;;;3.17;1.60;;;;;;;;;;6339380;22;20142;-58
2021/11/05 09:22:13;;;;;;;3.35;1.55;;;;;;;;;;6339909;22;20159;-59
2021/11/05 09:24:39;;;;;;;2.40;1.30;;;;;;;;;;6339452;22;20169;-58
2021/11/05 09:27:05;;;;;;;3.78;1.80;;;;;;;;;;6339826;22;20534;-56
2021/11/05 09:29:31;;;;;;;3.60;1.70;;;;;;;;;;6339199;22;20507;-58
2021/11/05 09:31:57;;;;;;;6.55;1.60;;;;;;;;;;6339268;22;20142;-58
2021/11/05 09:34:23;;;;;;;4.28;1.60;;;;;;;;;;6338983;22;20235;-56
2021/11/05 09:36:49;;;;;;;3.95;1.85;;;;;;;;;;6339453;22;20139;-58
2021/11/05 09:39:15;;;;;;;8.07;2.17;;;;;;;;;;6339005;22;20148;-58
2021/11/05 09:41:41;;;;;;;3.90;1.60;;;;;;;;;;6339531;22;20154;-58
2021/11/05 09:44:07;;;;;;;2.75;1.45;;;;;;;;;;6339420;22;20142;-58
2021/11/05 09:46:37;;;;;;;2.90;1.30;;;;;;;;;;6339132;22;20146;-58
2021/11/05 09:49:03;;;;;;;3.22;1.48;;;;;;;;;;6339540;22;20234;-57
2021/11/05 09:51:29;;;;;;;2.58;1.48;;;;;;;;;;6339219;22;20142;-55
2021/11/05 09:53:58;;;;;;;2.00;1.30;;;;;;;;;;6339436;22;20205;-58
2021/11/05 09:56:24;;;;;;;4.20;1.40;;;;;;;;;;6339074;22;20139;-58
2021/11/05 09:58:50;;;;;;;5.72;1.50;;;;;;;;;;6339013;22;20142;-59
2021/11/05 10:01:16;;;;;;;4.38;1.35;;;;;;;;;;6339026;22;20143;-58
2021/11/05 10:03:42;;;;;;;2.22;1.05;;;;;;;;;;6339109;22;20184;-58
2021/11/05 10:06:09;;;;;;;2.75;1.10;;;;;;;;;;6339352;22;20143;-58
2021/11/05 10:08:36;;;;;;;3.70;1.38;;;;;;;;;;6339048;22;20139;-58
2021/11/05 10:11:20;;;;;;;1.40;0.80;;;;;;;;;;6339418;22;20153;-57
2021/11/05 10:13:46;;;;;;;2.00;0.90;;;;;;;;;;6339499;22;20247;-58
2021/11/05 10:16:15;;;;;;;2.83;1.02;;;;;;;;;;6339315;22;20146;-58
2021/11/05 10:19:02;;;;;;;2.58;1.13;;;;;;;;;;6339328;22;20580;-60
2021/11/05 10:21:40;;;;;;;2.28;0.90;;;;;;;;;;6339948;22;20141;-59
2021/11/05 10:24:07;;;;;;;3.78;1.05;;;;;;;;;;6339004;22;20432;-59
2021/11/05 10:26:33;;;;;;;3.10;0.95;;;;;;;;;;6338887;22;20545;-59
2021/11/05 10:29:00;;;;;;;3.08;0.98;;;;;;;;;;6339436;22;20174;-59
2021/11/05 10:31:26;;;;;;;4.05;1.10;;;;;;;;;;6338838;22;20145;-59
2021/11/05 10:33:52;;;;;;;1.80;0.88;;;;;;;;;;6339013;22;20141;-59
2021/11/05 10:36:19;;;;;;;4.28;1.15;;;;;;;;;;6339309;22;20441;-60
2021/11/05 10:38:45;;;;;;;2.72;1.20;;;;;;;;;;6339666;22;20145;-58
2021/11/05 10:41:15;;;;;;;1.73;1.20;;;;;;;;;;6339640;22;20142;-58
2021/11/05 10:43:43;;;;;;;3.67;1.25;;;;;;;;;;6339471;22;20176;-58
2021/11/05 10:46:24;;;;;;;5.38;1.50;;;;;;;;;;6339201;22;20150;-59
2021/11/05 10:48:50;;;;;;;5.20;1.25;;;;;;;;;;6339393;22;20142;-59
2021/11/05 10:51:19;;;;;;;2.53;1.20;;;;;;;;;;6339003;22;20142;-59
2021/11/05 10:53:45;;;;;;;7.63;1.23;;;;;;;;;;6339097;22;20776;-58
2021/11/05 10:56:19;;;;;;;1.63;1.00;;;;;;;;;;6339043;22;20139;-59
2021/11/05 10:58:50;;;;;;;3.33;1.00;;;;;;;;;;6338979;22;20142;-59
2021/11/05 11:01:19;;;;;;;4.82;1.10;;;;;;;;;;6338720;22;20200;-58
2021/11/05 11:03:47;;;;;;;2.55;1.08;;;;;;;;;;6339048;22;20162;-58
2021/11/05 11:06:18;;;;;;;2.20;1.10;;;;;;;;;;6339094;22;20198;-58
2021/11/05 11:08:52;;;;;;;2.53;1.08;;;;;;;;;;6341578;22;20430;-59
2021/11/05 11:11:21;;;;;;;3.15;1.25;;;;;;;;;;6338961;22;20135;-58
2021/11/05 11:14:03;;;;;;;1.88;0.90;;;;;;;;;;6339006;22;20213;-58
2021/11/05 11:16:36;;;;;;;2.05;1.10;;;;;;;;;;6338393;22;20221;-58
2021/11/05 11:19:04;;;;;;;2.78;1.20;;;;;;;;;;6338898;22;20177;-58
2021/11/05 11:21:38;;;;;;;2.75;1.10;;;;;;;;;;6338615;22;20170;-59
2021/11/05 11:24:06;;;;;;;3.92;1.20;;;;;;;;;;6338355;22;20142;-58
2021/11/05 11:26:33;;;;;;;4.45;1.10;;;;;;;;;;6338622;22;20166;-57
2021/11/05 11:28:59;;;;;;;5.35;1.30;;;;;;;;;;6338477;22;20153;-59
2021/11/05 11:31:26;;;;;;;4.18;1.23;;;;;;;;;;6338481;22;20655;-60
2021/11/05 11:33:52;;;;;;;3.63;1.15;;;;;;;;;;6338460;22;20492;-60
2021/11/05 11:36:20;;;;;;;3.00;0.90;;;;;;;;;;6338776;22;20211;-57
2021/11/05 11:38:50;;;;;;;3.47;1.17;;;;;;;;;;6337624;22;20192;-58
2021/11/05 11:41:16;;;;;;;4.95;1.10;;;;;;;;;;6338185;22;20146;-60
2021/11/05 11:43:42;;;;;;;5.15;1.23;;;;;;;;;;6338193;22;20193;-59
2021/11/05 11:46:08;;;;;;;3.35;1.65;;;;;;;;;;6340105;22;20659;-58
2021/11/05 11:48:38;;;;;;;4.68;1.10;;;;;;;;;;6340555;22;20246;-58
2021/11/05 11:51:21;;;;;;;3.47;1.10;;;;;;;;;;6340330;22;20444;-57
2021/11/05 11:53:48;;;;;;;4.00;1.02;;;;;;;;;;6340475;22;20446;-59
2021/11/05 11:56:24;;;;;;;2.20;1.00;;;;;;;;;;6340078;22;20204;-59
2021/11/05 11:58:58;;;;;;;2.78;1.00;;;;;;;;;;6340647;22;20169;-60
2021/11/05 12:01:25;;;;;;;6.13;0.90;;;;;;;;;;6340746;22;20143;-60
2021/11/05 12:03:56;;;;;;;1.75;0.90;;;;;;;;;;6340577;22;20231;-60
2021/11/05 12:06:22;;;;;;;4.00;0.95;;;;;;;;;;6340616;22;20338;-60
2021/11/05 12:08:49;;;;;;;6.20;1.08;;;;;;;;;;6342054;22;20199;-58
2021/11/05 12:11:17;;;;;;;3.40;0.82;;;;;;;;;;6340164;22;20134;-58
2021/11/05 12:13:52;;;;;;;5.47;1.05;;;;;;;;;;6340962;22;20138;-63
2021/11/05 12:16:29;;;;;;;2.05;0.70;;;;;;;;;;6340419;22;20146;-59
2021/11/05 12:19:06;;;;;;;2.20;0.63;;;;;;;;;;6340957;22;20160;-60
2021/11/05 12:21:41;;;;;;;2.20;0.77;;;;;;;;;;6340028;22;20435;-60
2021/11/05 12:24:31;;;;;;;4.03;0.65;;;;;;;;;;6340073;22;20606;-60
2021/11/05 12:26:57;;;;;;;1.88;0.73;;;;;;;;;;6340469;22;20134;-59
2021/11/05 12:29:32;;;;;;;2.25;0.80;;;;;;;;;;6340515;22;20611;-60
2021/11/05 12:32:02;;;;;;;2.65;0.98;;;;;;;;;;6340461;22;20402;-59
2021/11/05 12:34:35;;;;;;;3.47;0.80;;;;;;;;;;6339990;22;20143;-60
2021/11/05 12:37:02;;;;;;;2.50;1.13;;;;;;;;;;6340449;22;20122;-60
2021/11/05 12:39:29;;;;;;;1.67;0.90;;;;;;;;;;6340273;22;20177;-60
2021/11/05 12:41:59;;;;;;;2.08;1.27;;;;;;;;;;6340698;22;20195;-59
2021/11/05 12:44:28;;;;;;;3.35;0.93;;;;;;;;;;6340366;22;20584;-60
2021/11/05 12:46:54;;;;;;;3.70;1.08;;;;;;;;;;6340605;22;20413;-60
2021/11/05 12:49:20;;;;;;;3.50;1.20;;;;;;;;;;6340109;22;20225;-60
2021/11/05 12:51:50;;;;;;;4.45;1.45;;;;;;;;;;6340039;22;20217;-59
2021/11/05 12:54:18;;;;;;;1.50;1.00;;;;;;;;;;6339995;22;20145;-58
2021/11/05 12:56:55;;;;;;;4.57;1.33;;;;;;;;;;6340461;22;20138;-58
2021/11/05 12:59:23;;;;;;;1.83;1.15;;;;;;;;;;6340045;22;20183;-59
2021/11/05 13:02:00;;;;;;;3.80;1.05;;;;;;;;;;6339886;22;20135;-59
2021/11/05 13:04:30;;;;;;;2.60;1.13;;;;;;;;;;6340032;22;20138;-59
2021/11/05 13:07:05;;;;;;;3.22;1.10;;;;;;;;;;6340208;22;20203;-59
2021/11/05 13:09:32;;;;;;;4.60;1.00;;;;;;;;;;6340795;22;20126;-59
2021/11/05 13:12:00;;;;;;;2.67;1.05;;;;;;;;;;6340108;22;20246;-58
2021/11/05 13:14:35;;;;;;;2.75;1.02;;;;;;;;;;6339717;22;20427;-60
2021/11/05 13:17:01;;;;;;;2.17;1.00;;;;;;;;;;6339592;22;20165;-57
2021/11/05 13:19:27;;;;;;;2.30;1.10;;;;;;;;;;6339658;22;20145;-59
2021/11/05 13:22:06;;;;;;;3.20;1.17;;;;;;;;;;6339366;22;20150;-58
2021/11/05 13:24:32;;;;;;;3.13;1.02;;;;;;;;;;6339475;22;20135;-58
2021/11/05 13:27:04;;;;;;;2.38;0.90;;;;;;;;;;6339164;22;20135;-59
2021/11/05 13:29:31;;;;;;;3.22;1.10;;;;;;;;;;6339302;22;20210;-58
2021/11/05 13:32:13;;;;;;;2.30;0.95;;;;;;;;;;6339327;22;20145;-58
2021/11/05 13:34:39;;;;;;;1.52;0.90;;;;;;;;;;6339368;22;20449;-58
2021/11/05 13:37:05;;;;;;;7.43;0.93;;;;;;;;;;6339144;22;20145;-58
2021/11/05 13:39:31;;;;;;;2.65;1.33;;;;;;;;;;6339594;22;20196;-58
2021/11/05 13:41:57;;;;;;;3.25;0.90;;;;;;;;;;6339110;22;20151;-58
2021/11/05 13:44:23;;;;;;;2.65;1.10;;;;;;;;;;6339071;22;20141;-58
2021/11/05 13:46:49;;;;;;;3.28;0.98;;;;;;;;;;6339392;22;20575;-58
2021/11/05 13:49:16;;;;;;;1.83;0.90;;;;;;;;;;6339215;22;20577;-58
2021/11/05 13:51:42;;;;;;;1.58;1.05;;;;;;;;;;6339554;22;20146;-58
2021/11/05 13:54:12;;;;;;;2.20;0.77;;;;;;;;;;6339309;22;20173;-58
2021/11/05 13:56:40;;;;;;;1.40;0.70;;;;;;;;;;6339503;22;20157;-58
2021/11/05 13:59:07;;;;;;;2.25;0.90;;;;;;;;;;6339335;22;20203;-58
2021/11/05 14:01:35;;;;;;;4.65;0.90;;;;;;;;;;6339017;22;20198;-58
2021/11/05 14:04:03;;;;;;;1.92;0.60;;;;;;;;;;6339176;22;20578;-58
2021/11/05 14:06:29;;;;;;;4.45;1.13;;;;;;;;;;6338727;22;20146;-58
2021/11/05 14:08:56;;;;;;;2.80;0.80;;;;;;;;;;6338838;22;20134;-58
2021/11/05 14:11:26;;;;;;;4.35;0.80;;;;;;;;;;6339017;22;20413;-58
2021/11/05 14:13:52;;;;;;;3.65;0.80;;;;;;;;;;6339158;22;20134;-57
2021/11/05 14:16:19;;;;;;;2.30;0.70;;;;;;;;;;6339263;22;20225;-57
2021/11/05 14:18:44;;;;;;;2.90;0.85;;;;;;;;;;6339176;22;20153;-58
2021/11/05 14:21:18;;;;;;;2.33;0.90;;;;;;;;;;6339287;22;20143;-57
2021/11/05 14:23:45;;;;;;;1.70;0.57;;;;;;;;;;6339206;22;20166;-57
2021/11/05 14:26:18;;;;;;;4.00;0.70;;;;;;;;;;6338993;22;20134;-58
2021/11/05 14:28:44;;;;;;;2.40;0.70;;;;;;;;;;6339034;22;20217;-58
2021/11/05 14:31:10;;;;;;;2.47;0.82;;;;;;;;;;6339070;22;20174;-59
2021/11/05 14:33:36;;;;;;;1.40;0.70;;;;;;;;;;6339101;22;20225;-58
2021/11/05 14:36:02;;;;;;;1.63;0.60;;;;;;;;;;6339538;22;20161;-59
2021/11/05 14:38:28;;;;;;;1.70;1.05;;;;;;;;;;6339178;22;20546;-59
2021/11/05 14:40:59;;;;;;;1.50;0.55;;;;;;;;;;6339421;22;20183;-57
2021/11/05 14:43:25;;;;;;;4.40;0.82;;;;;;;;;;6339394;22;20162;-58
2021/11/05 14:45:57;;;;;;;2.85;0.75;;;;;;;;;;6339664;22;20491;-58
2021/11/05 14:48:25;;;;;;;2.17;0.70;;;;;;;;;;6339091;22;20165;-58
2021/11/05 14:51:11;;;;;;;2.08;0.80;;;;;;;;;;6339367;22;20140;-56
2021/11/05 14:53:38;;;;;;;2.10;0.85;;;;;;;;;;6339002;22;20157;-58
2021/11/05 14:56:06;;;;;;;4.05;0.80;;;;;;;;;;6339015;22;20161;-58
2021/11/05 14:58:40;;;;;;;3.95;1.02;;;;;;;;;;6339147;22;20456;-58
2021/11/05 15:01:15;;;;;;;3.97;0.77;;;;;;;;;;6339090;22;20145;-58
2021/11/05 15:03:42;;;;;;;3.08;0.80;;;;;;;;;;6338885;22;20166;-57
2021/11/05 15:06:17;;;;;;;3.97;0.70;;;;;;;;;;6339295;22;20164;-58
2021/11/05 15:08:43;;;;;;;1.42;0.60;;;;;;;;;;6338683;22;20447;-57
2021/11/05 15:11:09;;;;;;;2.65;0.85;;;;;;;;;;6339143;22;20323;-58
2021/11/05 15:13:36;;;;;;;1.83;0.50;;;;;;;;;;6339476;22;20226;-55
2021/11/05 15:16:04;;;;;;;1.05;0.50;;;;;;;;;;6338724;22;20212;-58
2021/11/05 15:18:30;;;;;;;3.53;0.70;;;;;;;;;;6338596;22;20142;-57
2021/11/05 15:20:56;;;;;;;4.40;0.75;;;;;;;;;;6339330;22;20142;-57
2021/11/05 15:23:24;;;;;;;2.90;0.60;;;;;;;;;;6338498;22;20166;-57
2021/11/05 15:25:51;;;;;;;2.03;0.75;;;;;;;;;;6338697;22;20146;-58
2021/11/05 15:28:17;;;;;;;4.15;0.60;;;;;;;;;;6338704;22;20134;-59
2021/11/05 15:30:45;;;;;;;4.13;0.68;;;;;;;;;;6338642;22;20139;-58
2021/11/05 15:33:12;;;;;;;2.05;0.63;;;;;;;;;;6338734;22;20149;-59
2021/11/05 15:35:38;;;;;;;3.72;0.85;;;;;;;;;;6338697;22;20153;-58
2021/11/05 15:38:06;;;;;;;4.70;0.70;;;;;;;;;;6338384;22;20588;-59
2021/11/05 15:40:32;;;;;;;4.15;1.00;;;;;;;;;;6338894;22;20138;-59
2021/11/05 15:42:58;;;;;;;2.88;1.13;;;;;;;;;;6338432;22;20266;-58
2021/11/05 15:45:24;;;;;;;1.48;0.93;;;;;;;;;;6338635;22;20135;-59
2021/11/05 15:47:54;;;;;;;2.28;0.90;;;;;;;;;;6338285;22;20218;-59
2021/11/05 15:50:20;;;;;;;3.42;1.23;;;;;;;;;;6338802;22;20142;-59
2021/11/05 15:52:46;;;;;;;1.23;1.05;;;;;;;;;;6338984;22;20139;-58
2021/11/05 15:55:14;;;;;;;2.80;1.05;;;;;;;;;;6338806;22;20436;-59
2021/11/05 15:57:41;;;;;;;3.33;0.80;;;;;;;;;;6338767;22;20656;-58
2021/11/05 16:00:08;;;;;;;5.40;0.80;;;;;;;;;;6338824;22;20443;-57
2021/11/05 16:02:34;;;;;;;3.22;0.60;;;;;;;;;;6338567;22;20166;-57
2021/11/05 16:05:00;;;;;;;2.83;0.70;;;;;;;;;;6338247;22;20177;-57
2021/11/05 16:07:29;;;;;;;4.68;0.95;;;;;;;;;;6338363;22;20478;-56
2021/11/05 16:09:55;;;;;;;5.38;0.80;;;;;;;;;;6338318;22;20441;-56
2021/11/05 16:12:21;;;;;;;1.90;0.80;;;;;;;;;;6338147;22;20181;-59
2021/11/05 16:14:47;;;;;;;5.13;0.80;;;;;;;;;;6338634;22;20191;-57
2021/11/05 16:17:13;;;;;;;3.65;0.82;;;;;;;;;;6338600;22;20234;-59
2021/11/05 16:19:39;;;;;;;4.32;1.00;;;;;;;;;;6338219;22;20149;-59
2021/11/05 16:22:05;;;;;;;7.10;1.10;;;;;;;;;;6338653;22;20169;-56
2021/11/05 16:24:32;;;;;;;3.50;1.30;;;;;;;;;;6338791;22;20787;-59
2021/11/05 16:26:58;;;;;;;6.93;2.00;;;;;;;;;;6338574;22;20217;-59
2021/11/05 16:29:24;;;;;;;5.88;1.50;;;;;;;;;;6338596;22;20141;-59
2021/11/05 16:31:50;;;;;;;5.18;1.23;;;;;;;;;;6340306;22;20138;-57
2021/11/05 16:34:16;;;;;;;10.50;1.33;;;;;;;;;;6340522;22;20180;-59
2021/11/05 16:36:42;;;;;;;2.85;1.02;;;;;;;;;;6340736;22;20225;-59
2021/11/05 16:39:10;;;;;;;3.38;1.02;;;;;;;;;;6340383;22;20189;-57
2021/11/05 16:41:36;;;;;;;2.83;1.00;;;;;;;;;;6340689;22;20532;-59
2021/11/05 16:44:02;;;;;;;2.47;1.00;;;;;;;;;;6340287;22;20594;-59
2021/11/05 16:46:28;;;;;;;3.38;0.80;;;;;;;;;;6340543;22;20134;-58
2021/11/05 16:48:56;;;;;;;5.55;0.65;;;;;;;;;;6340626;22;20142;-58
2021/11/05 16:51:23;;;;;;;4.85;1.00;;;;;;;;;;6340930;22;20153;-58
2021/11/05 16:53:50;;;;;;;2.97;0.80;;;;;;;;;;6340396;22;20146;-59
2021/11/05 16:56:16;;;;;;;5.05;0.95;;;;;;;;;;6340497;22;20584;-59
2021/11/05 16:58:43;;;;;;;2.88;0.70;;;;;;;;;;6340320;22;20172;-58
2021/11/05 17:01:11;;;;;;;6.30;1.10;;;;;;;;;;6340812;22;20138;-59
2021/11/05 17:03:37;;;;;;;7.65;1.00;;;;;;;;;;6340248;22;20177;-59
2021/11/05 17:06:03;;;;;;;4.60;0.93;;;;;;;;;;6340111;22;20162;-58
2021/11/05 17:08:29;;;;;;;4.43;1.08;;;;;;;;;;6339807;22;20234;-58
2021/11/05 17:10:55;;;;;;;3.55;1.00;;;;;;;;;;6340713;22;20141;-58
2021/11/05 17:13:21;;;;;;;3.55;0.90;;;;;;;;;;6340759;22;20184;-59
2021/11/05 17:15:47;;;;;;;6.28;1.30;;;;;;;;;;6340269;22;20553;-58
2021/11/05 17:18:13;;;;;;;4.43;0.90;;;;;;;;;;6339635;22;20149;-59
2021/11/05 17:20:39;;;;;;;3.30;0.80;;;;;;;;;;6339610;22;20142;-59
2021/11/05 17:23:06;;;;;;;4.47;1.00;;;;;;;;;;6339481;22;20158;-57
2021/11/05 17:25:32;;;;;;;7.10;1.13;;;;;;;;;;6339491;22;20138;-59
2021/11/05 17:27:57;;;;;;;4.43;1.00;;;;;;;;;;6340021;22;20149;-58